Strona główna
METAR-TAF:

METAR-TAF

Lotnisko :

Port lotniczy Chongqing-Jiangbei

Chongqing, Chiny

Szerokość geograficzna: 29-31N, Długość geograficzna: 106-29E, wysokość: 351 m

Aktualna obserwacja pogody

Raport powstał 14 minut temu, godzina 09:00 UTC
Wiatr 2 kt z kierunków zmiennych
Temperatura 35°C
Wilgotność 47%
Ciśnienie 1001 hPa
Widzialność 10 km lub więcej
Brak chmur poniżej 1500 m i brak chmur cumulonimbus

METAR: ZUCK 190900Z VRB01MPS CAVOK 35/22 Q1001 NOSIG

czas: 17:14 (09:14 UTC)

Prognoza

Raport powstał 6 godziny i 4 minut temu, godzina 03:10 UTC
Prognoza ważna od 19 godzina 06 UTC do 20 godzina 06 UTC
Wiatr 6 kt od wschodnio-południowy wschód
Widzialność: 6000 m
Rozproszone chmury na wysokości 4000 ft
Przejściowo
od 19 godzina 06 UTC do 19 godzina 12 UTC
Rozproszone chmury na wysokości 4000 ft
Mało chmury na wysokości 5000 ft, Cumulonimbus.

TAF: ZUCK 190310Z 1906/2006 12003MPS 6000 SCT040 TX36/1908Z TN28/1921Z TEMPO 1906/1912 SCT040 FEW050CB

Obserwacja i prognoza pogody dla ponad 4000 lotnisk (raport METAR i TAF).

Dostępne stacje oznaczono żółtymi i czerwonymi punktami na mapie.

Najedź kursorem aby zobaczyć nazwę stacji.

Kliknij aby zobaczyć obserwacje i prognozy pogody.

Aby zmienić mapę: kliknij na zielony przycisk z czarnym krzyżykiem, aby powiększyć; na zielony przycisk z myślnikiem, aby pomniejszyć; na zielone strzałki, aby przejść do map sąsiednich.


METAR-TAF: